createdAt,value
2016-04-03T00:00:04.712Z,986.94
2016-04-03T00:01:04.715Z,986.96
2016-04-03T00:02:04.717Z,986.91
2016-04-03T00:03:04.720Z,986.89
2016-04-03T00:04:04.723Z,986.89
2016-04-03T00:05:04.710Z,986.84
2016-04-03T00:06:04.728Z,986.86
2016-04-03T00:07:04.716Z,986.86
2016-04-03T00:08:04.719Z,986.81
2016-04-03T00:09:04.721Z,986.84
2016-04-03T00:10:04.739Z,986.91
2016-04-03T00:11:04.726Z,986.9
2016-04-03T00:12:04.729Z,986.91
2016-04-03T00:13:04.732Z,986.88
2016-04-03T00:14:04.735Z,986.85
2016-04-03T00:15:04.737Z,986.84
2016-04-03T00:16:04.740Z,986.78
2016-04-03T00:17:04.727Z,986.8
2016-04-03T00:18:04.730Z,986.75
2016-04-03T00:19:04.733Z,986.74
2016-04-03T00:20:04.735Z,986.77
2016-04-03T00:21:04.738Z,986.81
2016-04-03T00:22:04.757Z,986.82
2016-04-03T00:23:04.743Z,986.82
2016-04-03T00:24:04.746Z,986.8
2016-04-03T00:25:04.748Z,986.75
2016-04-03T00:26:04.752Z,986.75
2016-04-03T00:27:04.754Z,986.76
2016-04-03T00:28:04.757Z,986.81
2016-04-03T00:29:04.744Z,986.79
2016-04-03T00:30:04.746Z,986.82
2016-04-03T00:31:04.749Z,986.8
2016-04-03T00:32:04.751Z,986.84
2016-04-03T00:33:04.754Z,986.85
2016-04-03T00:34:04.757Z,986.81
2016-04-03T00:35:04.759Z,986.76
2016-04-03T00:36:04.762Z,986.73
2016-04-03T00:37:04.764Z,986.75
2016-04-03T00:38:04.767Z,986.8
2016-04-03T00:39:04.755Z,986.75
2016-04-03T00:40:04.758Z,986.7
2016-04-03T00:41:04.776Z,986.71
2016-04-03T00:42:04.779Z,986.73
2016-04-03T00:43:04.781Z,986.74
2016-04-03T00:44:04.769Z,986.72
2016-04-03T00:45:04.771Z,986.76
2016-04-03T00:46:04.774Z,986.78
2016-04-03T00:47:04.777Z,986.79
2016-04-03T00:48:04.779Z,986.8
2016-04-03T00:49:04.766Z,986.79
2016-04-03T00:50:04.768Z,986.79
2016-04-03T00:51:04.787Z,986.82
2016-04-03T00:52:04.774Z,986.8
2016-04-03T00:53:04.777Z,986.8
2016-04-03T00:54:04.780Z,986.8
2016-04-03T00:55:04.782Z,986.8
2016-04-03T00:56:04.785Z,986.83
2016-04-03T00:57:04.787Z,986.85
2016-04-03T00:58:04.790Z,986.83
2016-04-03T00:59:04.793Z,986.82
2016-04-03T01:00:04.779Z,986.81
2016-04-03T01:01:04.783Z,986.75
2016-04-03T01:02:04.801Z,986.69
2016-04-03T01:03:04.788Z,986.68
2016-04-03T01:04:04.791Z,986.64
2016-04-03T01:05:04.794Z,986.67
2016-04-03T01:06:04.796Z,986.69
2016-04-03T01:07:04.799Z,986.74
2016-04-03T01:08:04.797Z,986.71
2016-04-03T01:09:04.796Z,986.73
2016-04-03T01:10:04.798Z,986.68
2016-04-03T01:11:04.801Z,986.65
2016-04-03T01:12:04.804Z,986.68
2016-04-03T01:13:04.806Z,986.65
2016-04-03T01:14:04.793Z,986.64
2016-04-03T01:15:04.811Z,986.61
2016-04-03T01:16:04.799Z,986.62
2016-04-03T01:17:04.805Z,986.55
2016-04-03T01:18:04.808Z,986.59
2016-04-03T01:19:04.811Z,986.58
2016-04-03T01:20:04.813Z,986.64
2016-04-03T01:21:04.832Z,986.61
2016-04-03T01:22:04.802Z,986.57
2016-04-03T01:23:04.805Z,986.6
2016-04-03T01:24:04.808Z,986.6
2016-04-03T01:25:04.827Z,986.64
2016-04-03T01:26:04.814Z,986.62
2016-04-03T01:27:04.817Z,986.63
2016-04-03T01:28:04.819Z,986.66
2016-04-03T01:29:04.822Z,986.68
2016-04-03T01:30:04.809Z,986.67
2016-04-03T01:31:04.843Z,986.69
2016-04-03T01:32:04.830Z,986.71
2016-04-03T01:33:04.832Z,986.74
2016-04-03T01:34:04.820Z,986.8
2016-04-03T01:35:04.822Z,986.83
2016-04-03T01:36:04.825Z,986.8
2016-04-03T01:37:04.843Z,986.84
2016-04-03T01:38:04.830Z,986.81
2016-04-03T01:39:04.834Z,986.78
2016-04-03T01:40:04.836Z,986.79
2016-04-03T01:41:04.839Z,986.8
2016-04-03T01:42:04.825Z,986.79
2016-04-03T01:43:04.844Z,986.81
2016-04-03T01:44:04.847Z,986.81
2016-04-03T01:45:04.833Z,986.8
2016-04-03T01:46:04.836Z,986.79
2016-04-03T01:47:04.839Z,986.82
2016-04-03T01:48:04.842Z,986.84
2016-04-03T01:49:04.845Z,986.82
2016-04-03T01:50:04.847Z,986.79
2016-04-03T01:51:04.850Z,986.83
2016-04-03T01:52:04.852Z,986.86
2016-04-03T01:53:04.855Z,986.86
2016-04-03T01:54:04.858Z,986.89
2016-04-03T01:55:04.845Z,986.9
2016-04-03T01:56:04.847Z,986.88
2016-04-03T01:57:04.866Z,986.88
2016-04-03T01:58:04.868Z,986.89
2016-04-03T01:59:04.855Z,986.88
2016-04-03T02:00:04.874Z,986.92
2016-04-03T02:01:04.861Z,986.91
2016-04-03T02:02:04.880Z,986.92
2016-04-03T02:03:04.866Z,986.92
2016-04-03T02:04:04.869Z,986.88
2016-04-03T02:05:04.871Z,986.87
2016-04-03T02:06:04.859Z,986.83
2016-04-03T02:07:04.862Z,986.84
2016-04-03T02:08:04.869Z,986.81
2016-04-03T02:09:04.872Z,986.76
2016-04-03T02:10:04.875Z,986.79
2016-04-03T02:11:04.878Z,986.81
2016-04-03T02:12:04.881Z,986.84
2016-04-03T02:13:04.883Z,986.81
2016-04-03T02:14:04.870Z,986.81
2016-04-03T02:15:04.872Z,986.79
2016-04-03T02:16:04.875Z,986.79
2016-04-03T02:17:04.878Z,986.8
2016-04-03T02:18:04.880Z,986.77
2016-04-03T02:19:04.883Z,986.83
2016-04-03T02:20:04.885Z,986.83
2016-04-03T02:21:04.888Z,986.76
2016-04-03T02:22:04.891Z,986.77
2016-04-03T02:23:04.878Z,986.78
2016-04-03T02:24:04.881Z,986.74
2016-04-03T02:25:04.899Z,986.74
2016-04-03T02:26:04.886Z,986.8
2016-04-03T02:27:04.904Z,986.74
2016-04-03T02:28:04.891Z,986.74
2016-04-03T02:29:04.894Z,986.78
2016-04-03T02:30:04.897Z,986.78
2016-04-03T02:31:04.899Z,986.78
2016-04-03T02:32:04.902Z,986.75
2016-04-03T02:33:04.889Z,986.76
2016-04-03T02:34:04.892Z,986.77
2016-04-03T02:35:04.910Z,986.78
2016-04-03T02:36:04.898Z,986.82
2016-04-03T02:37:04.916Z,986.76
2016-04-03T02:38:04.903Z,986.78
2016-04-03T02:39:04.921Z,986.76
2016-04-03T02:40:04.908Z,986.77
2016-04-03T02:41:04.911Z,986.71
2016-04-03T02:42:04.914Z,986.7
2016-04-03T02:43:04.916Z,986.71
2016-04-03T02:44:04.919Z,986.67
2016-04-03T02:45:04.922Z,986.69
2016-04-03T02:46:04.909Z,986.69
2016-04-03T02:47:04.912Z,986.71
2016-04-03T02:48:04.914Z,986.75
2016-04-03T02:49:04.917Z,986.72
2016-04-03T02:50:04.919Z,986.72
2016-04-03T02:51:04.922Z,986.71
2016-04-03T02:52:04.924Z,986.7
2016-04-03T02:53:04.927Z,986.68
2016-04-03T02:54:04.930Z,986.67
2016-04-03T02:55:04.933Z,986.68
2016-04-03T02:56:04.921Z,986.65
2016-04-03T02:57:04.938Z,986.67
2016-04-03T02:58:04.926Z,986.69
2016-04-03T02:59:04.929Z,986.74
2016-04-03T03:00:04.932Z,986.73
2016-04-03T03:01:04.934Z,986.75
2016-04-03T03:02:04.937Z,986.73
2016-04-03T03:03:04.939Z,986.82
2016-04-03T03:04:04.942Z,986.81
2016-04-03T03:05:04.960Z,986.8
2016-04-03T03:06:04.931Z,986.74
2016-04-03T03:07:04.934Z,986.79
2016-04-03T03:08:04.952Z,986.78
2016-04-03T03:09:04.939Z,986.84
2016-04-03T03:10:04.958Z,986.8
2016-04-03T03:11:04.961Z,986.8
2016-04-03T03:12:04.964Z,986.79
2016-04-03T03:13:04.966Z,986.76
2016-04-03T03:14:04.969Z,986.74
2016-04-03T03:15:04.955Z,986.73
2016-04-03T03:16:04.958Z,986.73
2016-04-03T03:17:04.961Z,986.69
2016-04-03T03:18:04.963Z,986.7
2016-04-03T03:19:04.967Z,986.75
2016-04-03T03:20:04.953Z,986.72
2016-04-03T03:21:04.956Z,986.68
2016-04-03T03:22:04.959Z,986.7
2016-04-03T03:23:04.961Z,986.67
2016-04-03T03:24:04.964Z,986.62
2016-04-03T03:25:04.966Z,986.63
2016-04-03T03:26:04.969Z,986.67
2016-04-03T03:27:04.972Z,986.67
2016-04-03T03:28:04.974Z,986.74
2016-04-03T03:29:04.962Z,986.66
2016-04-03T03:30:04.980Z,986.63
2016-04-03T03:31:04.967Z,986.59
2016-04-03T03:32:04.971Z,986.62
2016-04-03T03:33:04.973Z,986.66
2016-04-03T03:34:04.976Z,986.57
2016-04-03T03:35:04.979Z,986.58
2016-04-03T03:36:04.981Z,986.57
2016-04-03T03:37:04.984Z,986.58
2016-04-03T03:38:04.986Z,986.57
2016-04-03T03:39:04.989Z,986.55
2016-04-03T03:40:04.992Z,986.56
2016-04-03T03:41:04.978Z,986.52
2016-04-03T03:42:04.997Z,986.5
2016-04-03T03:43:04.983Z,986.53
2016-04-03T03:44:04.986Z,986.51
2016-04-03T03:45:04.989Z,986.52
2016-04-03T03:46:04.992Z,986.51
2016-04-03T03:47:04.995Z,986.47
2016-04-03T03:48:04.997Z,986.42
2016-04-03T03:49:05.000Z,986.46
2016-04-03T03:50:05.002Z,986.48
2016-04-03T03:51:05.005Z,986.47
2016-04-03T03:52:05.008Z,986.5
2016-04-03T03:53:04.994Z,986.45
2016-04-03T03:54:04.997Z,986.43
2016-04-03T03:55:05.016Z,986.45
2016-04-03T03:56:05.003Z,986.43
2016-04-03T03:57:05.006Z,986.45
2016-04-03T03:58:05.009Z,986.43
2016-04-03T03:59:05.011Z,986.44
2016-04-03T04:00:05.014Z,986.42
2016-04-03T04:01:05.001Z,986.38
2016-04-03T04:02:05.019Z,986.41
2016-04-03T04:03:05.007Z,986.39
2016-04-03T04:04:05.009Z,986.39
2016-04-03T04:05:05.027Z,986.41
2016-04-03T04:06:05.014Z,986.38
2016-04-03T04:07:05.018Z,986.45
2016-04-03T04:08:05.020Z,986.47
2016-04-03T04:09:05.023Z,986.45
2016-04-03T04:10:05.026Z,986.48
2016-04-03T04:11:05.028Z,986.55
2016-04-03T04:12:05.031Z,986.57
2016-04-03T04:13:05.017Z,986.62
2016-04-03T04:14:05.020Z,986.68
2016-04-03T04:15:05.023Z,986.74
2016-04-03T04:16:05.025Z,986.76
2016-04-03T04:17:05.028Z,986.77
2016-04-03T04:18:05.030Z,986.84
2016-04-03T04:19:05.018Z,986.89
2016-04-03T04:20:05.036Z,986.92
2016-04-03T04:21:05.039Z,986.97
2016-04-03T04:22:05.042Z,987
2016-04-03T04:23:05.030Z,986.97
2016-04-03T04:24:05.047Z,986.95
2016-04-03T04:25:05.035Z,986.93
2016-04-03T04:26:05.052Z,986.93
2016-04-03T04:27:05.040Z,986.87
2016-04-03T04:28:05.043Z,986.86
2016-04-03T04:29:05.029Z,986.92
2016-04-03T04:30:05.049Z,986.95
2016-04-03T04:31:05.051Z,986.93
2016-04-03T04:32:05.038Z,986.98
2016-04-03T04:33:05.041Z,986.94
2016-04-03T04:34:05.043Z,986.94
2016-04-03T04:35:05.046Z,986.94
2016-04-03T04:36:05.048Z,986.99
2016-04-03T04:37:05.051Z,986.99
2016-04-03T04:38:05.054Z,986.97
2016-04-03T04:39:05.056Z,987.04
2016-04-03T04:40:05.059Z,987.07
2016-04-03T04:41:05.061Z,987.07
2016-04-03T04:42:05.064Z,987.09
2016-04-03T04:43:05.051Z,987.09
2016-04-03T04:44:05.054Z,987.07
2016-04-03T04:45:05.073Z,987.12
2016-04-03T04:46:05.075Z,987.16
2016-04-03T04:47:05.062Z,987.14
2016-04-03T04:48:05.064Z,987.17
2016-04-03T04:49:05.067Z,987.13
2016-04-03T04:50:05.070Z,987.1
2016-04-03T04:51:05.073Z,987.07
2016-04-03T04:52:05.075Z,987.09
2016-04-03T04:53:05.078Z,987.07
2016-04-03T04:54:05.080Z,987.02
2016-04-03T04:55:05.083Z,987
2016-04-03T04:56:05.071Z,987.06
2016-04-03T04:57:05.088Z,987.06
2016-04-03T04:58:05.077Z,987.05
2016-04-03T04:59:05.094Z,987.05
2016-04-03T05:00:05.082Z,987.07
2016-04-03T05:01:05.085Z,987.09
2016-04-03T05:02:05.087Z,987.11
2016-04-03T05:03:05.090Z,987.12
2016-04-03T05:04:05.092Z,987.13
2016-04-03T05:05:05.095Z,987.14
2016-04-03T05:06:05.129Z,987.16
2016-04-03T05:07:05.101Z,987.18
2016-04-03T05:08:05.088Z,987.17
2016-04-03T05:09:05.106Z,987.17
2016-04-03T05:10:05.109Z,987.18
2016-04-03T05:11:05.095Z,987.2
2016-04-03T05:12:05.098Z,987.22
2016-04-03T05:13:05.101Z,987.22
2016-04-03T05:14:05.103Z,987.27
2016-04-03T05:15:05.111Z,987.32
2016-04-03T05:16:05.087Z,987.28
2016-04-03T05:17:05.094Z,987.29
2016-04-03T05:18:05.069Z,987.28
2016-04-03T05:19:05.062Z,987.27
2016-04-03T05:20:05.044Z,987.22
2016-04-03T05:21:05.043Z,987.28
2016-04-03T05:22:05.058Z,987.31
2016-04-03T05:23:05.056Z,987.4
2016-04-03T05:24:05.040Z,987.4
2016-04-03T05:25:05.041Z,987.49
2016-04-03T05:26:05.042Z,987.51
2016-04-03T05:27:05.043Z,987.54
2016-04-03T05:28:05.045Z,987.53
2016-04-03T05:29:05.046Z,987.57
2016-04-03T05:30:05.048Z,987.59
2016-04-03T05:31:05.050Z,987.65
2016-04-03T05:32:05.052Z,987.66
2016-04-03T05:33:05.055Z,987.66
2016-04-03T05:34:05.057Z,987.62
2016-04-03T05:35:05.059Z,987.69
2016-04-03T05:36:05.047Z,987.68
2016-04-03T05:37:05.049Z,987.7
2016-04-03T05:38:05.051Z,987.73
2016-04-03T05:39:05.054Z,987.69
2016-04-03T05:40:05.056Z,987.71
2016-04-03T05:41:05.059Z,987.67
2016-04-03T05:42:05.062Z,987.7
2016-04-03T05:43:05.064Z,987.67
2016-04-03T05:44:05.067Z,987.66
2016-04-03T05:45:05.069Z,987.55
2016-04-03T05:46:05.072Z,987.56
2016-04-03T05:47:05.059Z,987.59
2016-04-03T05:48:05.061Z,987.61
2016-04-03T05:49:05.080Z,987.58
2016-04-03T05:50:05.083Z,987.56
2016-04-03T05:51:05.070Z,987.54
2016-04-03T05:52:05.072Z,987.53
2016-04-03T05:53:05.075Z,987.51
2016-04-03T05:54:05.078Z,987.52
2016-04-03T05:55:05.081Z,987.5
2016-04-03T05:56:05.083Z,987.49
2016-04-03T05:57:05.086Z,987.52
2016-04-03T05:58:05.089Z,987.51
2016-04-03T05:59:05.092Z,987.49
2016-04-03T06:00:05.094Z,987.52
2016-04-03T06:01:05.128Z,987.53
2016-04-03T06:02:05.084Z,987.5
2016-04-03T06:03:05.102Z,987.49
2016-04-03T06:04:05.090Z,987.45
2016-04-03T06:05:05.108Z,987.44
2016-04-03T06:06:05.095Z,987.45
2016-04-03T06:07:05.098Z,987.4
2016-04-03T06:08:05.101Z,987.45
2016-04-03T06:09:05.103Z,987.42
2016-04-03T06:10:05.106Z,987.43
2016-04-03T06:11:05.109Z,987.41
2016-04-03T06:12:05.111Z,987.39
2016-04-03T06:13:05.114Z,987.38
2016-04-03T06:14:05.117Z,987.42
2016-04-03T06:15:05.119Z,987.41
2016-04-03T06:16:05.122Z,987.39
2016-04-03T06:17:05.125Z,987.43
2016-04-03T06:18:05.127Z,987.48
2016-04-03T06:19:05.130Z,987.49
2016-04-03T06:20:05.133Z,987.57
2016-04-03T06:21:05.136Z,987.56
2016-04-03T06:22:05.138Z,987.56
2016-04-03T06:23:05.141Z,987.59
2016-04-03T06:24:05.144Z,987.7
2016-04-03T06:25:05.147Z,987.69
2016-04-03T06:26:05.149Z,987.72
2016-04-03T06:27:05.136Z,987.75
2016-04-03T06:28:05.139Z,987.74
2016-04-03T06:29:05.141Z,987.76
2016-04-03T06:30:05.144Z,987.79
2016-04-03T06:31:05.147Z,987.75
2016-04-03T06:32:05.165Z,987.77
2016-04-03T06:33:05.168Z,987.8
2016-04-03T06:34:05.171Z,987.84
2016-04-03T06:35:05.173Z,987.84
2016-04-03T06:36:05.176Z,987.88
2016-04-03T06:37:05.179Z,987.9
2016-04-03T06:38:05.181Z,987.96
2016-04-03T06:39:05.184Z,987.99
2016-04-03T06:40:05.187Z,987.98
2016-04-03T06:41:05.189Z,987.97
2016-04-03T06:42:05.192Z,987.95
2016-04-03T06:43:05.195Z,987.9
2016-04-03T06:44:05.197Z,987.91
2016-04-03T06:45:05.200Z,987.89
2016-04-03T06:46:05.203Z,987.86
2016-04-03T06:47:05.206Z,987.9
2016-04-03T06:48:05.209Z,987.87
2016-04-03T06:49:05.211Z,987.91
2016-04-03T06:50:05.214Z,987.95
2016-04-03T06:51:05.216Z,987.96
2016-04-03T06:52:05.219Z,988.02
2016-04-03T06:53:05.222Z,987.99
2016-04-03T06:54:05.224Z,988.04
2016-04-03T06:55:05.227Z,988.05
2016-04-03T06:56:05.230Z,988.04
2016-04-03T06:57:05.233Z,988.02
2016-04-03T06:58:05.236Z,988.05
2016-04-03T06:59:05.253Z,988.05
2016-04-03T07:00:05.241Z,988.03
2016-04-03T07:01:05.243Z,988.08
2016-04-03T07:02:05.246Z,988.04
2016-04-03T07:03:05.264Z,988.07
2016-04-03T07:04:05.251Z,988.03
2016-04-03T07:05:05.269Z,988.05
2016-04-03T07:06:05.272Z,988.05
2016-04-03T07:07:05.274Z,988.01
2016-04-03T07:08:05.277Z,988.01
2016-04-03T07:09:05.280Z,987.93
2016-04-03T07:10:05.282Z,987.96
2016-04-03T07:11:05.286Z,987.98
2016-04-03T07:12:05.288Z,987.99
2016-04-03T07:13:05.291Z,988.01
2016-04-03T07:14:05.294Z,987.97
2016-04-03T07:15:05.297Z,987.97
2016-04-03T07:16:05.315Z,987.99
2016-04-03T07:17:05.302Z,988.01
2016-04-03T07:18:05.321Z,988.04
2016-04-03T07:19:05.307Z,987.98
2016-04-03T07:20:05.326Z,988.03
2016-04-03T07:21:05.329Z,988.03
2016-04-03T07:22:05.331Z,988.05
2016-04-03T07:23:05.349Z,988.03
2016-04-03T07:24:05.351Z,988.06
2016-04-03T07:25:05.339Z,988.07
2016-04-03T07:26:05.342Z,988.05
2016-04-03T07:27:05.359Z,988.06
2016-04-03T07:28:05.347Z,988.04
2016-04-03T07:29:05.350Z,988.07
2016-04-03T07:30:05.367Z,988.05
2016-04-03T07:31:05.370Z,988.07
2016-04-03T07:32:05.373Z,988.12
2016-04-03T07:33:05.595Z,988.1
2016-04-03T07:34:05.379Z,988.15
2016-04-03T07:35:05.382Z,988.13
2016-04-03T07:36:05.384Z,988.15
2016-04-03T07:37:05.403Z,988.08
2016-04-03T07:38:05.390Z,988.07
2016-04-03T07:39:05.408Z,988.1
2016-04-03T07:40:05.411Z,988.11
2016-04-03T07:41:05.413Z,988.17
2016-04-03T07:42:05.432Z,988.19
2016-04-03T07:43:05.419Z,988.18
2016-04-03T07:44:05.437Z,988.18
2016-04-03T07:45:05.440Z,988.18
2016-04-03T07:46:05.443Z,988.18
2016-04-03T07:47:05.445Z,988.24
2016-04-03T07:48:05.448Z,988.23
2016-04-03T07:49:05.465Z,988.26
2016-04-03T07:50:05.468Z,988.26
2016-04-03T07:51:05.471Z,988.26
2016-04-03T07:52:05.474Z,988.31
2016-04-03T07:53:05.477Z,988.3
2016-04-03T07:54:05.495Z,988.31
2016-04-03T07:55:05.498Z,988.36
2016-04-03T07:56:05.501Z,988.36
2016-04-03T07:57:05.519Z,988.33
2016-04-03T07:58:05.522Z,988.31
2016-04-03T07:59:05.525Z,988.33
2016-04-03T08:00:05.527Z,988.33
2016-04-03T08:01:05.545Z,988.33
2016-04-03T08:02:05.547Z,988.34
2016-04-03T08:03:05.567Z,988.25
2016-04-03T08:04:05.569Z,988.29
2016-04-03T08:05:05.572Z,988.26
2016-04-03T08:06:05.575Z,988.25
2016-04-03T08:07:05.592Z,988.29
2016-04-03T08:08:05.595Z,988.27
2016-04-03T08:09:05.597Z,988.23
2016-04-03T08:10:05.616Z,988.28
2016-04-03T08:11:05.619Z,988.24
2016-04-03T08:12:05.622Z,988.23
2016-04-03T08:13:05.640Z,988.2
2016-04-03T08:14:05.658Z,988.18
2016-04-03T08:15:05.661Z,988.15
2016-04-03T08:16:05.663Z,988.12
2016-04-03T08:17:05.666Z,988.15
2016-04-03T08:18:05.668Z,988.14
2016-04-03T08:19:05.687Z,988.12
2016-04-03T08:20:05.706Z,988.14
2016-04-03T08:21:05.708Z,988.12
2016-04-03T08:22:05.743Z,988.11
2016-04-03T08:23:05.714Z,988.14
2016-04-03T08:24:05.732Z,988.09
2016-04-03T08:25:05.735Z,988.08
2016-04-03T08:26:05.754Z,988.03
2016-04-03T08:27:05.756Z,988.06
2016-04-03T08:28:05.759Z,988.09
2016-04-03T08:29:05.777Z,988.07
2016-04-03T08:30:05.779Z,988.07
2016-04-03T08:31:05.798Z,988.08
2016-04-03T08:32:05.801Z,988.07
2016-04-03T08:33:05.819Z,988.04
2016-04-03T08:34:05.837Z,988.04
2016-04-03T08:35:05.825Z,988.02
2016-04-03T08:36:05.842Z,988.01
2016-04-03T08:37:05.845Z,988.05
2016-04-03T08:38:05.863Z,988.01
2016-04-03T08:39:05.866Z,987.99
2016-04-03T08:40:05.885Z,987.99
2016-04-03T08:41:05.902Z,987.98
2016-04-03T08:42:05.905Z,987.98
2016-04-03T08:43:05.908Z,988.01
2016-04-03T08:44:05.911Z,988.01
2016-04-03T08:45:05.913Z,987.97
2016-04-03T08:46:05.932Z,987.97
2016-04-03T08:47:05.949Z,987.97
2016-04-03T08:48:05.952Z,987.96
2016-04-03T08:49:05.955Z,987.96
2016-04-03T08:50:05.957Z,987.93
2016-04-03T08:51:05.976Z,987.93
2016-04-03T08:52:05.979Z,987.92
2016-04-03T08:53:05.997Z,987.94
2016-04-03T08:54:06.000Z,987.94
2016-04-03T08:55:06.003Z,987.92
2016-04-03T08:56:06.005Z,987.93
2016-04-03T08:57:06.024Z,987.96
2016-04-03T08:58:06.026Z,987.91
2016-04-03T08:59:06.029Z,987.91
2016-04-03T09:00:06.047Z,987.91
2016-04-03T09:01:06.050Z,987.92
2016-04-03T09:02:06.053Z,987.91
2016-04-03T09:03:06.055Z,987.91
2016-04-03T09:04:06.074Z,987.91
2016-04-03T09:05:06.092Z,987.89
2016-04-03T09:06:06.095Z,987.96
2016-04-03T09:07:06.097Z,987.95
2016-04-03T09:08:06.102Z,987.91
2016-04-03T09:09:06.110Z,987.94
2016-04-03T09:10:06.113Z,987.93
2016-04-03T09:11:06.115Z,987.95
2016-04-03T09:12:06.149Z,987.9
2016-04-03T09:13:06.136Z,987.94
2016-04-03T09:14:06.139Z,987.89
2016-04-03T09:15:06.189Z,987.87
2016-04-03T09:16:06.160Z,987.87
2016-04-03T09:17:06.163Z,987.83
2016-04-03T09:18:06.181Z,987.85
2016-04-03T09:19:06.184Z,987.84
2016-04-03T09:20:06.187Z,987.9
2016-04-03T09:21:06.205Z,987.86
2016-04-03T09:22:06.208Z,987.86
2016-04-03T09:23:06.210Z,987.91
2016-04-03T09:24:06.228Z,987.89
2016-04-03T09:25:06.230Z,987.92
2016-04-03T09:26:06.233Z,987.93
2016-04-03T09:27:06.252Z,987.9
2016-04-03T09:28:06.255Z,987.9
2016-04-03T09:29:06.258Z,987.9
2016-04-03T09:30:06.260Z,987.92
2016-04-03T09:31:06.263Z,987.82
2016-04-03T09:32:06.280Z,987.86
2016-04-03T09:33:06.300Z,987.9
2016-04-03T09:34:06.302Z,987.88
2016-04-03T09:35:06.305Z,987.89
2016-04-03T09:36:06.307Z,987.92
2016-04-03T09:37:06.326Z,987.9
2016-04-03T09:38:06.315Z,987.88
2016-04-03T09:39:06.333Z,987.87
2016-04-03T09:40:06.336Z,987.87
2016-04-03T09:41:06.339Z,987.85
2016-04-03T09:42:06.356Z,987.88
2016-04-03T09:43:06.359Z,987.89
2016-04-03T09:44:06.378Z,987.89
2016-04-03T09:45:06.365Z,987.92
2016-04-03T09:46:06.367Z,987.88
2016-04-03T09:47:06.386Z,987.93
2016-04-03T09:48:06.389Z,987.86
2016-04-03T09:49:06.391Z,987.85
2016-04-03T09:50:06.409Z,987.82
2016-04-03T09:51:06.412Z,987.83
2016-04-03T09:52:06.415Z,987.8
2016-04-03T09:53:06.434Z,987.83
2016-04-03T09:54:06.436Z,987.81
2016-04-03T09:55:06.469Z,987.79
2016-04-03T09:56:06.457Z,987.78
2016-04-03T09:57:06.460Z,987.8
2016-04-03T09:58:06.477Z,987.79
2016-04-03T09:59:06.480Z,987.77
2016-04-03T10:00:06.483Z,987.77
2016-04-03T10:01:06.502Z,987.76
2016-04-03T10:02:06.510Z,987.71
2016-04-03T10:03:06.495Z,987.76
2016-04-03T10:04:06.507Z,987.72
2016-04-03T10:05:06.588Z,987.75
2016-04-03T10:06:07.092Z,987.75
2016-04-03T10:07:06.534Z,987.72
2016-04-03T10:08:06.551Z,987.72
2016-04-03T10:09:06.554Z,987.74
2016-04-03T10:10:06.556Z,987.76
2016-04-03T10:11:06.576Z,987.75
2016-04-03T10:12:06.578Z,987.76
2016-04-03T10:13:06.565Z,987.68
2016-04-03T10:14:06.584Z,987.7
2016-04-03T10:15:06.601Z,987.68
2016-04-03T10:16:06.604Z,987.64
2016-04-03T10:17:06.606Z,987.64
2016-04-03T10:18:06.609Z,987.59
2016-04-03T10:19:06.628Z,987.54
2016-04-03T10:20:06.631Z,987.53
2016-04-03T10:21:06.664Z,987.51
2016-04-03T10:22:06.652Z,987.51
2016-04-03T10:23:06.655Z,987.51
2016-04-03T10:24:06.658Z,987.44
2016-04-03T10:25:06.675Z,987.43
2016-04-03T10:26:06.678Z,987.41
2016-04-03T10:27:06.680Z,987.43
2016-04-03T10:28:06.683Z,987.4
2016-04-03T10:29:06.702Z,987.35
2016-04-03T10:30:06.705Z,987.36
2016-04-03T10:31:06.708Z,987.36
2016-04-03T10:32:06.741Z,987.38
2016-04-03T10:33:06.729Z,987.38
2016-04-03T10:34:06.746Z,987.34
2016-04-03T10:35:06.749Z,987.29
2016-04-03T10:36:06.751Z,987.26
2016-04-03T10:37:06.754Z,987.23
2016-04-03T10:38:06.773Z,987.22
2016-04-03T10:39:06.776Z,987.18
2016-04-03T10:40:06.779Z,987.17
2016-04-03T10:41:06.781Z,987.18
2016-04-03T10:42:06.799Z,987.19
2016-04-03T10:43:06.802Z,987.17
2016-04-03T10:44:06.805Z,987.11
2016-04-03T10:45:06.823Z,987.14
2016-04-03T10:46:06.826Z,987.14
2016-04-03T10:47:06.829Z,987.17
2016-04-03T10:48:06.847Z,987.16
2016-04-03T10:49:06.850Z,987.17
2016-04-03T10:50:06.867Z,987.18
2016-04-03T10:51:06.870Z,987.22
2016-04-03T10:52:06.872Z,987.22
2016-04-03T10:53:06.875Z,987.22
2016-04-03T10:54:06.878Z,987.22
2016-04-03T10:55:06.897Z,987.18
2016-04-03T10:56:06.900Z,987.19
2016-04-03T10:57:06.918Z,987.17
2016-04-03T10:58:06.921Z,987.22
2016-04-03T10:59:06.923Z,987.19
2016-04-03T11:00:06.941Z,987.16
2016-04-03T11:01:06.943Z,987.13
2016-04-03T11:02:06.946Z,987.14
2016-04-03T11:03:06.949Z,987.14
2016-04-03T11:04:06.968Z,987.14
2016-04-03T11:05:06.971Z,987.17
2016-04-03T11:06:06.974Z,987.22
2016-04-03T11:07:06.991Z,987.26
2016-04-03T11:08:07.001Z,987.22
2016-04-03T11:09:07.004Z,987.21
2016-04-03T11:10:07.007Z,987.21
2016-04-03T11:11:07.010Z,987.21
2016-04-03T11:12:07.029Z,987.19
2016-04-03T11:13:07.031Z,987.17
2016-04-03T11:14:07.050Z,987.14
2016-04-03T11:15:07.052Z,987.17
2016-04-03T11:16:07.055Z,987.12
2016-04-03T11:17:07.072Z,987.13
2016-04-03T11:18:07.075Z,987.13
2016-04-03T11:19:07.078Z,987.13
2016-04-03T11:20:07.097Z,987.13
2016-04-03T11:21:07.099Z,987.08
2016-04-03T11:22:07.102Z,987.1
2016-04-03T11:23:07.105Z,987.03
2016-04-03T11:24:07.122Z,987.05
2016-04-03T11:25:07.125Z,987.02
2016-04-03T11:26:07.128Z,986.98
2016-04-03T11:27:07.147Z,986.99
2016-04-03T11:28:07.150Z,986.93
2016-04-03T11:29:07.152Z,986.89
2016-04-03T11:30:07.186Z,986.88
2016-04-03T11:31:07.174Z,986.83
2016-04-03T11:32:07.176Z,986.85
2016-04-03T11:33:07.194Z,986.86
2016-04-03T11:34:07.196Z,986.76
2016-04-03T11:35:07.199Z,986.8
2016-04-03T11:36:07.202Z,986.84
2016-04-03T11:37:07.221Z,986.78
2016-04-03T11:38:07.224Z,986.75
2016-04-03T11:39:07.226Z,986.77
2016-04-03T11:40:07.245Z,986.76
2016-04-03T11:41:07.247Z,986.69
2016-04-03T11:42:07.250Z,986.74
2016-04-03T11:43:07.267Z,986.74
2016-04-03T11:44:07.270Z,986.71
2016-04-03T11:45:07.273Z,986.69
2016-04-03T11:46:07.292Z,986.69
2016-04-03T11:47:07.295Z,986.65
2016-04-03T11:48:07.344Z,986.63
2016-04-03T11:49:07.347Z,986.66
2016-04-03T11:50:07.315Z,986.57
2016-04-03T11:51:07.318Z,986.6
2016-04-03T11:52:07.321Z,986.6
2016-04-03T11:53:07.339Z,986.61
2016-04-03T11:54:07.358Z,986.59
2016-04-03T11:55:07.361Z,986.56
2016-04-03T11:56:07.363Z,986.51
2016-04-03T11:57:07.381Z,986.54
2016-04-03T11:58:07.383Z,986.48
2016-04-03T11:59:07.386Z,986.49
2016-04-03T12:00:07.388Z,986.45
2016-04-03T12:01:07.407Z,986.41
2016-04-03T12:02:07.411Z,986.42
2016-04-03T12:03:07.429Z,986.34
2016-04-03T12:04:07.415Z,986.44
2016-04-03T12:05:07.435Z,986.42
2016-04-03T12:06:07.453Z,986.42
2016-04-03T12:07:07.455Z,986.38
2016-04-03T12:08:07.457Z,986.36
2016-04-03T12:09:07.460Z,986.36
2016-04-03T12:10:07.494Z,986.37
2016-04-03T12:11:07.497Z,986.43
2016-04-03T12:12:07.500Z,986.37
2016-04-03T12:13:07.502Z,986.35
2016-04-03T12:14:07.521Z,986.34
2016-04-03T12:15:07.507Z,986.34
2016-04-03T12:16:07.526Z,986.33
2016-04-03T12:17:07.529Z,986.26
2016-04-03T12:18:10.548Z,986.31
2016-04-03T12:19:07.565Z,986.26
2016-04-03T12:20:07.552Z,986.25
2016-04-03T12:21:07.556Z,986.23
2016-04-03T12:22:07.573Z,986.17
2016-04-03T12:23:07.592Z,986.16
2016-04-03T12:24:07.578Z,986.15
2016-04-03T12:25:07.597Z,986.14
2016-04-03T12:26:07.600Z,986.14
2016-04-03T12:27:07.618Z,986.2
2016-04-03T12:28:07.622Z,986.13
2016-04-03T12:29:07.624Z,986.13
2016-04-03T12:30:07.642Z,986.16